Strona główna
METAR-TAF:

METAR-TAF

Lotnisko :

Pekin, Chiny

Port lotniczy Pekin

Szerokość geograficzna: 39-56N, Długość geograficzna: 116-17E, wysokość: 55 m

Aktualna obserwacja pogody

Raport powstał 18 minut temu, godzina 05:30 UTC
Wiatr 6 kt od południe, zmienny między południowo-południowy wschód i południowy zachód
Temperatura 4°C
Wilgotność 23%
Ciśnienie 1024 hPa
Widzialność 10 km lub więcej
Brak chmur poniżej 1500 m i brak chmur cumulonimbus

METAR: ZBAA 180530Z 19003MPS 150V220 CAVOK 04/M15 Q1024 NOSIG

czas: 13:48 (05:48 UTC)

Prognoza

Raport powstał 2 godziny i 18 minut temu, godzina 03:30 UTC
Prognoza ważna od 18 godzina 06 UTC do 19 godzina 06 UTC
Wiatr 8 kt od południe
Widzialność: 6000 m

TAF: ZBAA 180330Z 1806/1906 18004MPS 6000 NSC TX02/1807Z TNM07/21Z

Obserwacja i prognoza pogody dla ponad 4000 lotnisk (raport METAR i TAF).

Dostępne stacje oznaczono żółtymi i czerwonymi punktami na mapie.

Najedź kursorem aby zobaczyć nazwę stacji.

Kliknij aby zobaczyć obserwacje i prognozy pogody.

Aby zmienić mapę: kliknij na zielony przycisk z czarnym krzyżykiem, aby powiększyć; na zielony przycisk z myślnikiem, aby pomniejszyć; na zielone strzałki, aby przejść do map sąsiednich.


METAR-TAF: